createdAt,value
2022-11-29T00:01:12.562Z,98192.41
2022-11-29T00:03:39.627Z,98189.78
2022-11-29T00:06:12.818Z,98191.56
2022-11-29T00:08:39.666Z,98184.63
2022-11-29T00:11:08.339Z,98185.41
2022-11-29T00:13:35.206Z,98186.28
2022-11-29T00:16:03.781Z,98187.13
2022-11-29T00:18:30.492Z,98185.41
2022-11-29T00:20:57.508Z,98183.66
2022-11-29T00:23:24.128Z,98188.81
2022-11-29T00:25:50.676Z,98185.31
2022-11-29T00:28:17.288Z,98175.78
2022-11-29T00:30:43.859Z,98182.72
2022-11-29T00:33:10.555Z,98175.69
2022-11-29T00:35:37.162Z,98173.03
2022-11-29T00:38:03.777Z,98173.03
2022-11-29T00:40:30.267Z,98175.63
2022-11-29T00:42:56.980Z,98175.66
2022-11-29T00:45:23.522Z,98171.28
2022-11-29T00:47:50.089Z,98174.75
2022-11-29T00:50:16.639Z,98173.88
2022-11-29T00:52:43.244Z,98173.00
2022-11-29T00:55:09.991Z,98168.66
2022-11-29T00:57:36.583Z,98165.16
2022-11-29T01:00:04.704Z,98167.72
2022-11-29T01:02:31.399Z,98162.50
2022-11-29T01:04:58.086Z,98166.00
2022-11-29T01:07:24.874Z,98165.13
2022-11-29T01:09:51.468Z,98170.34
2022-11-29T01:12:18.138Z,98172.06
2022-11-29T01:14:44.979Z,98175.56
2022-11-29T01:17:11.865Z,98177.28
2022-11-29T01:19:39.042Z,98177.28
2022-11-29T01:22:05.693Z,98182.50
2022-11-29T01:24:32.264Z,98179.00
2022-11-29T01:26:58.862Z,98191.25
2022-11-29T01:29:25.419Z,98184.28
2022-11-29T01:31:52.132Z,98190.38
2022-11-29T01:34:18.826Z,98195.59
2022-11-29T01:36:45.394Z,98193.00
2022-11-29T01:39:11.938Z,98198.25
2022-11-29T01:41:38.796Z,98200.00
2022-11-29T01:44:11.471Z,98203.41
2022-11-29T01:46:40.566Z,98200.81
2022-11-29T01:49:42.676Z,98198.16
2022-11-29T01:52:20.947Z,98196.50
2022-11-29T01:54:52.211Z,98201.69
2022-11-29T01:57:20.467Z,98198.19
2022-11-29T01:59:51.027Z,98197.34
2022-11-29T02:02:29.244Z,98201.69
2022-11-29T02:04:58.128Z,98198.22
2022-11-29T02:07:25.002Z,98195.63
2022-11-29T02:09:51.592Z,98197.34
2022-11-29T02:12:41.466Z,98205.19
2022-11-29T02:15:29.217Z,98200.81
2022-11-29T02:18:11.976Z,98202.56
2022-11-29T02:20:56.906Z,98201.69
2022-11-29T02:23:47.902Z,98206.91
2022-11-29T02:26:35.829Z,98202.56
2022-11-29T02:29:40.996Z,98205.16
2022-11-29T02:32:46.279Z,98202.53
2022-11-29T02:35:28.791Z,98198.28
2022-11-29T02:37:58.231Z,98206.94
2022-11-29T02:40:56.779Z,98206.03
2022-11-29T02:43:48.286Z,98205.22
2022-11-29T02:46:39.470Z,98205.13
2022-11-29T02:49:24.150Z,98209.50
2022-11-29T02:52:02.524Z,98205.16
2022-11-29T02:54:35.181Z,98208.66
2022-11-29T02:57:11.994Z,98205.19
2022-11-29T03:00:03.285Z,98215.59
2022-11-29T03:02:40.829Z,98213.88
2022-11-29T03:05:07.405Z,98215.59
2022-11-29T03:07:55.949Z,98211.19
2022-11-29T03:10:41.169Z,98217.31
2022-11-29T03:13:20.163Z,98219.94
2022-11-29T03:15:58.771Z,98219.94
2022-11-29T03:18:42.196Z,98220.81
2022-11-29T03:21:23.903Z,98218.16
2022-11-29T03:23:53.948Z,98220.78
2022-11-29T03:26:30.509Z,98219.03
2022-11-29T03:29:07.597Z,98220.78
2022-11-29T03:32:05.094Z,98226.00
2022-11-29T03:34:55.696Z,98222.53
2022-11-29T03:37:43.996Z,98232.13
2022-11-29T03:40:19.033Z,98228.63
2022-11-29T03:43:06.883Z,98217.31
2022-11-29T03:45:53.916Z,98228.63
2022-11-29T03:48:35.333Z,98228.63
2022-11-29T03:51:41.426Z,98224.28
2022-11-29T03:54:13.133Z,98223.38
2022-11-29T03:56:40.751Z,98229.47
2022-11-29T03:59:12.510Z,98229.44
2022-11-29T04:01:50.935Z,98232.88
2022-11-29T04:04:46.571Z,98231.16
2022-11-29T04:07:43.660Z,98235.53
2022-11-29T04:10:38.117Z,98245.97
2022-11-29T04:13:29.951Z,98241.63
2022-11-29T04:16:09.883Z,98236.41
2022-11-29T04:19:05.501Z,98243.38
2022-11-29T04:22:01.283Z,98245.13
2022-11-29T04:24:52.499Z,98248.56
2022-11-29T04:27:30.061Z,98243.38
2022-11-29T04:29:56.548Z,98243.41
2022-11-29T04:32:43.431Z,98259.06
2022-11-29T04:35:41.114Z,98255.59
2022-11-29T04:38:34.239Z,98253.88
2022-11-29T04:41:16.230Z,98254.78
2022-11-29T04:44:07.261Z,98254.78
2022-11-29T04:46:54.004Z,98261.75
2022-11-29T04:49:38.369Z,98257.38
2022-11-29T04:52:56.008Z,98265.25
2022-11-29T04:56:01.225Z,98262.66
2022-11-29T04:58:36.569Z,98258.31
2022-11-29T05:01:20.970Z,98269.63
2022-11-29T05:03:57.215Z,98279.19
2022-11-29T05:06:42.377Z,98282.66
2022-11-29T05:09:27.820Z,98280.06
2022-11-29T05:12:14.546Z,98280.91
2022-11-29T05:15:01.837Z,98278.28
2022-11-29T05:17:59.656Z,98280.91
2022-11-29T05:20:41.361Z,98285.28
2022-11-29T05:23:35.301Z,98283.59
2022-11-29T05:26:17.117Z,98292.28
2022-11-29T05:28:57.029Z,98287.91
2022-11-29T05:31:39.574Z,98288.78
2022-11-29T05:34:21.368Z,98300.09
2022-11-29T05:37:00.148Z,98307.88
2022-11-29T05:39:41.200Z,98308.72
2022-11-29T05:42:19.900Z,98310.50
2022-11-29T05:45:09.264Z,98301.81
2022-11-29T05:48:05.579Z,98307.91
2022-11-29T05:50:42.626Z,98306.16
2022-11-29T05:53:23.766Z,98306.19
2022-11-29T05:56:05.881Z,98310.53
2022-11-29T05:58:43.488Z,98314.84
2022-11-29T06:01:24.648Z,98314.84
2022-11-29T06:04:14.781Z,98320.94
2022-11-29T06:07:13.201Z,98315.75
2022-11-29T06:09:50.008Z,98327.00
2022-11-29T06:12:21.484Z,98326.13
2022-11-29T06:15:17.380Z,98327.00
2022-11-29T06:18:17.587Z,98336.59
2022-11-29T06:21:07.168Z,98340.94
2022-11-29T06:23:58.981Z,98338.34
2022-11-29T06:26:34.771Z,98341.84
2022-11-29T06:29:38.789Z,98344.41
2022-11-29T06:32:27.977Z,98349.66
2022-11-29T06:35:02.936Z,98351.38
2022-11-29T06:37:38.106Z,98350.53
2022-11-29T06:40:06.529Z,98354.00
2022-11-29T06:42:33.133Z,98351.38
2022-11-29T06:45:00.134Z,98354.00
2022-11-29T06:47:43.850Z,98354.84
2022-11-29T06:50:30.821Z,98362.66
2022-11-29T06:53:22.079Z,98358.28
2022-11-29T06:56:03.245Z,98370.47
2022-11-29T06:59:16.326Z,98363.47
2022-11-29T07:01:56.770Z,98372.19
2022-11-29T07:05:02.061Z,98379.13
2022-11-29T07:07:29.016Z,98371.31
2022-11-29T07:09:59.736Z,98377.38
2022-11-29T07:12:27.034Z,98377.38
2022-11-29T07:14:54.117Z,98378.22
2022-11-29T07:17:40.070Z,98379.97
2022-11-29T07:20:08.042Z,98388.66
2022-11-29T07:22:37.270Z,98386.06
2022-11-29T07:25:30.673Z,98393.00
2022-11-29T07:28:36.053Z,98387.75
2022-11-29T07:31:38.196Z,98391.22
2022-11-29T07:34:28.380Z,98385.16
2022-11-29T07:37:21.176Z,98392.94
2022-11-29T07:40:18.675Z,98399.88
2022-11-29T07:42:54.363Z,98399.00
2022-11-29T07:45:32.750Z,98400.69
2022-11-29T07:48:00.044Z,98400.72
2022-11-29T07:50:27.996Z,98410.28
2022-11-29T07:52:56.782Z,98403.28
2022-11-29T07:55:25.778Z,98405.03
2022-11-29T07:57:53.335Z,98417.19
2022-11-29T08:00:20.783Z,98410.25
2022-11-29T08:02:48.698Z,98413.69
2022-11-29T08:05:15.546Z,98413.72
2022-11-29T08:07:43.170Z,98417.19
2022-11-29T08:10:15.782Z,98418.84
2022-11-29T08:12:50.214Z,98418.00
2022-11-29T08:15:21.337Z,98424.06
2022-11-29T08:17:48.519Z,98423.16
2022-11-29T08:20:16.755Z,98422.28
2022-11-29T08:22:43.954Z,98429.22
2022-11-29T08:25:11.490Z,98427.50
2022-11-29T08:27:55.067Z,98427.50
2022-11-29T08:30:30.911Z,98439.63
2022-11-29T08:33:00.349Z,98431.78
2022-11-29T08:35:33.297Z,98430.03
2022-11-29T08:37:59.949Z,98440.44
2022-11-29T08:40:27.263Z,98430.03
2022-11-29T08:42:57.876Z,98430.72
2022-11-29T08:45:24.665Z,98432.44
2022-11-29T08:47:51.312Z,98428.00
2022-11-29T08:50:18.333Z,98432.41
2022-11-29T08:53:06.140Z,98426.31
2022-11-29T08:55:40.511Z,98438.41
2022-11-29T08:58:12.599Z,98441.81
2022-11-29T09:00:40.595Z,98443.53
2022-11-29T09:03:26.962Z,98451.38
2022-11-29T09:05:54.281Z,98450.56
2022-11-29T09:08:20.963Z,98450.56
2022-11-29T09:10:47.987Z,98454.94
2022-11-29T09:13:15.053Z,98462.78
2022-11-29T09:15:43.635Z,98454.13
2022-11-29T09:18:10.914Z,98460.22
2022-11-29T09:20:37.591Z,98463.63
2022-11-29T09:23:04.770Z,98465.44
2022-11-29T09:25:31.596Z,98472.41
2022-11-29T09:28:01.952Z,98468.91
2022-11-29T09:30:31.523Z,98482.78
2022-11-29T09:33:05.319Z,98476.63
2022-11-29T09:35:32.686Z,98477.44
2022-11-29T09:37:59.345Z,98479.16
2022-11-29T09:40:34.003Z,98480.03
2022-11-29T09:43:04.273Z,98475.66
2022-11-29T09:45:36.626Z,98482.66
2022-11-29T09:48:37.389Z,98487.94
2022-11-29T09:51:24.232Z,98487.00
2022-11-29T09:54:16.293Z,98489.56
2022-11-29T09:56:47.111Z,98492.31
2022-11-29T09:59:21.596Z,98496.66
2022-11-29T10:01:54.140Z,98487.94
2022-11-29T10:04:25.751Z,98494.03
2022-11-29T10:07:04.719Z,98496.50
2022-11-29T10:09:49.943Z,98492.16
2022-11-29T10:12:31.859Z,98493.06
2022-11-29T10:15:08.713Z,98484.38
2022-11-29T10:18:16.095Z,98494.00
2022-11-29T10:20:49.055Z,98483.50
2022-11-29T10:23:41.892Z,98487.88
2022-11-29T10:26:11.236Z,98488.69
2022-11-29T10:28:38.415Z,98489.50
2022-11-29T10:31:26.981Z,98486.88
2022-11-29T10:33:55.062Z,98480.75
2022-11-29T10:36:45.731Z,98490.28
2022-11-29T10:39:24.454Z,98498.13
2022-11-29T10:42:00.057Z,98498.13
2022-11-29T10:44:27.531Z,98493.81
2022-11-29T10:46:55.455Z,98494.72
2022-11-29T10:49:27.529Z,98496.47
2022-11-29T10:51:54.207Z,98498.16
2022-11-29T10:54:42.784Z,98499.88
2022-11-29T10:57:22.271Z,98499.00
2022-11-29T11:00:06.960Z,98496.38
2022-11-29T11:02:33.918Z,98498.97
2022-11-29T11:05:01.817Z,98502.44
2022-11-29T11:07:35.273Z,98495.50
2022-11-29T11:10:05.118Z,98496.34
2022-11-29T11:12:34.374Z,98506.78
2022-11-29T11:15:28.756Z,98513.78
2022-11-29T11:18:07.045Z,98510.38
2022-11-29T11:20:39.881Z,98506.00
2022-11-29T11:23:21.002Z,98510.38
2022-11-29T11:25:50.251Z,98511.25
2022-11-29T11:28:27.413Z,98506.00
2022-11-29T11:31:08.368Z,98510.38
2022-11-29T11:33:37.044Z,98509.50
2022-11-29T11:36:05.433Z,98510.38
2022-11-29T11:38:33.382Z,98513.84
2022-11-29T11:41:07.164Z,98512.13
2022-11-29T11:43:34.512Z,98511.28
2022-11-29T11:46:01.248Z,98513.00
2022-11-29T11:48:28.299Z,98519.06
2022-11-29T11:50:58.377Z,98518.16
2022-11-29T11:53:30.233Z,98515.50
2022-11-29T11:55:58.909Z,98522.53
2022-11-29T11:58:38.565Z,98521.63
2022-11-29T12:01:31.174Z,98527.69
2022-11-29T12:04:12.472Z,98523.34
2022-11-29T12:06:39.022Z,98525.03
2022-11-29T12:09:11.041Z,98518.97
2022-11-29T12:11:44.657Z,98524.09
2022-11-29T12:14:21.749Z,98519.78
2022-11-29T12:16:50.346Z,98521.59
2022-11-29T12:19:22.037Z,98529.28
2022-11-29T12:21:55.915Z,98531.09
2022-11-29T12:24:35.187Z,98524.94
2022-11-29T12:27:05.542Z,98533.63
2022-11-29T12:29:34.541Z,98530.97
2022-11-29T12:32:14.594Z,98538.91
2022-11-29T12:34:44.424Z,98538.06
2022-11-29T12:37:21.007Z,98537.22
2022-11-29T12:39:59.680Z,98539.84
2022-11-29T12:42:37.102Z,98548.56
2022-11-29T12:45:15.819Z,98549.44
2022-11-29T12:47:52.215Z,98552.91
2022-11-29T12:50:31.219Z,98546.75
2022-11-29T12:53:26.782Z,98546.78
2022-11-29T12:56:15.894Z,98552.09
2022-11-29T12:59:00.679Z,98550.34
2022-11-29T13:01:55.532Z,98550.34
2022-11-29T13:05:09.792Z,98566.88
2022-11-29T13:07:42.489Z,98557.25
2022-11-29T13:10:37.327Z,98555.50
2022-11-29T13:13:14.888Z,98559.81
2022-11-29T13:15:50.586Z,98565.09
2022-11-29T13:18:35.626Z,98567.69
2022-11-29T13:21:13.416Z,98562.47
2022-11-29T13:24:08.812Z,98562.44
2022-11-29T13:26:38.081Z,98569.47
2022-11-29T13:29:06.337Z,98567.69
2022-11-29T13:31:33.973Z,98570.34
2022-11-29T13:34:14.234Z,98573.91
2022-11-29T13:37:03.078Z,98576.50
2022-11-29T13:39:29.715Z,98576.50
2022-11-29T13:42:05.314Z,98577.38
2022-11-29T13:44:56.281Z,98581.66
2022-11-29T13:47:23.234Z,98578.25
2022-11-29T13:50:03.801Z,98588.72
2022-11-29T13:52:45.305Z,98590.47
2022-11-29T13:55:11.982Z,98585.28
2022-11-29T13:58:16.784Z,98588.75
2022-11-29T14:00:44.122Z,98584.38
2022-11-29T14:03:19.935Z,98589.63
2022-11-29T14:05:48.954Z,98586.13
2022-11-29T14:08:25.094Z,98587.84
2022-11-29T14:10:55.422Z,98584.34
2022-11-29T14:13:38.463Z,98586.97
2022-11-29T14:16:07.277Z,98585.22
2022-11-29T14:18:37.077Z,98596.59
2022-11-29T14:21:05.122Z,98597.47
2022-11-29T14:23:33.801Z,98595.72
2022-11-29T14:26:00.885Z,98592.25
2022-11-29T14:28:30.760Z,98590.56
2022-11-29T14:31:02.855Z,98591.47
2022-11-29T14:33:44.826Z,98603.63
2022-11-29T14:36:29.936Z,98604.56
2022-11-29T14:39:35.223Z,98596.72
2022-11-29T14:42:14.485Z,98597.66
2022-11-29T14:44:51.348Z,98602.00
2022-11-29T14:47:31.873Z,98599.41
2022-11-29T14:50:01.896Z,98600.28
2022-11-29T14:52:35.770Z,98606.41
2022-11-29T14:55:02.377Z,98608.09
2022-11-29T14:57:47.307Z,98604.63
2022-11-29T15:00:21.257Z,98615.03
2022-11-29T15:02:53.736Z,98613.31
2022-11-29T15:05:40.141Z,98614.19
2022-11-29T15:08:26.439Z,98624.66
2022-11-29T15:10:58.113Z,98629.00
2022-11-29T15:13:33.974Z,98627.28
2022-11-29T15:16:09.299Z,98635.13
2022-11-29T15:18:52.862Z,98620.31
2022-11-29T15:21:30.319Z,98637.72
2022-11-29T15:24:09.679Z,98625.56
2022-11-29T15:26:36.258Z,98629.94
2022-11-29T15:29:18.213Z,98634.28
2022-11-29T15:31:54.288Z,98637.78
2022-11-29T15:34:25.910Z,98636.03
2022-11-29T15:36:52.462Z,98636.91
2022-11-29T15:39:33.181Z,98642.97
2022-11-29T15:42:02.023Z,98643.84
2022-11-29T15:44:28.695Z,98655.13
2022-11-29T15:46:55.296Z,98649.06
2022-11-29T15:49:27.889Z,98646.47
2022-11-29T15:52:00.131Z,98653.44
2022-11-29T15:54:36.693Z,98656.94
2022-11-29T15:57:11.778Z,98660.44
2022-11-29T15:59:43.153Z,98663.03
2022-11-29T16:02:15.897Z,98662.16
2022-11-29T16:04:46.994Z,98661.25
2022-11-29T16:07:14.578Z,98655.19
2022-11-29T16:09:45.748Z,98663.03
2022-11-29T16:12:15.137Z,98668.25
2022-11-29T16:14:59.105Z,98664.75
2022-11-29T16:17:29.279Z,98675.19
2022-11-29T16:20:25.647Z,98670.88
2022-11-29T16:23:12.315Z,98684.78
2022-11-29T16:26:01.920Z,98670.88
2022-11-29T16:28:40.612Z,98679.59
2022-11-29T16:31:11.347Z,98686.56
2022-11-29T16:33:40.259Z,98683.94
2022-11-29T16:36:14.870Z,98690.91
2022-11-29T16:38:51.566Z,98691.78
2022-11-29T16:41:38.558Z,98684.81
2022-11-29T16:44:22.434Z,98696.13
2022-11-29T16:46:49.759Z,98698.72
2022-11-29T16:49:36.574Z,98697.84
2022-11-29T16:52:04.454Z,98706.56
2022-11-29T16:54:35.530Z,98701.31
2022-11-29T16:57:05.657Z,98702.22
2022-11-29T16:59:32.587Z,98700.44
2022-11-29T17:01:59.309Z,98703.94
2022-11-29T17:04:26.553Z,98703.06
2022-11-29T17:06:55.247Z,98704.84
2022-11-29T17:09:28.327Z,98697.00
2022-11-29T17:11:56.213Z,98689.19
2022-11-29T17:14:23.184Z,98701.38
2022-11-29T17:16:49.997Z,98695.28
2022-11-29T17:19:16.842Z,98708.31
2022-11-29T17:21:43.974Z,98702.22
2022-11-29T17:24:14.040Z,98710.06
2022-11-29T17:26:41.583Z,98698.75
2022-11-29T17:29:09.762Z,98711.78
2022-11-29T17:31:36.837Z,98703.09
2022-11-29T17:34:04.017Z,98711.81
2022-11-29T17:36:31.343Z,98710.06
2022-11-29T17:39:01.848Z,98712.66
2022-11-29T17:41:29.022Z,98717.03
2022-11-29T17:43:56.870Z,98717.03
2022-11-29T17:46:29.181Z,98719.63
2022-11-29T17:48:58.311Z,98722.25
2022-11-29T17:54:11.962Z,98730.09
2022-11-29T17:56:38.689Z,98722.25
2022-11-29T17:59:05.764Z,98725.72
2022-11-29T18:01:35.005Z,98730.09
2022-11-29T18:04:03.613Z,98725.75
2022-11-29T18:06:34.906Z,98730.09
2022-11-29T18:09:02.352Z,98730.09
2022-11-29T18:11:44.930Z,98726.66
2022-11-29T18:14:25.315Z,98732.72
2022-11-29T18:16:52.361Z,98729.22
2022-11-29T18:19:21.189Z,98728.38
2022-11-29T18:21:49.128Z,98728.38
2022-11-29T18:24:15.739Z,98728.38
2022-11-29T18:26:42.892Z,98724.88
2022-11-29T18:29:09.797Z,98731.88
2022-11-29T18:31:38.808Z,98731.84
2022-11-29T18:34:09.333Z,98730.97
2022-11-29T18:36:38.833Z,98731.84
2022-11-29T18:39:11.042Z,98740.53
2022-11-29T18:41:38.082Z,98744.03
2022-11-29T18:44:08.143Z,98740.53
2022-11-29T18:46:37.363Z,98737.06
2022-11-29T18:49:06.328Z,98746.63
2022-11-29T18:51:34.326Z,98745.78
2022-11-29T18:54:01.172Z,98745.75
2022-11-29T18:56:29.990Z,98744.03
2022-11-29T18:59:04.120Z,98745.78
2022-11-29T19:01:34.122Z,98738.81
2022-11-29T19:04:01.788Z,98752.72
2022-11-29T19:06:39.176Z,98759.72
2022-11-29T19:09:08.302Z,98763.19
2022-11-29T19:11:35.138Z,98759.69
2022-11-29T19:14:04.966Z,98758.81
2022-11-29T19:16:34.620Z,98763.19
2022-11-29T19:19:01.781Z,98761.44
2022-11-29T19:21:31.905Z,98763.19
2022-11-29T19:24:01.578Z,98763.19
2022-11-29T19:26:30.582Z,98771.91
2022-11-29T19:28:58.973Z,98773.66
2022-11-29T19:31:27.165Z,98765.78
2022-11-29T19:33:55.082Z,98765.78
2022-11-29T19:36:26.992Z,98763.19
2022-11-29T19:38:54.670Z,98763.19
2022-11-29T19:41:38.594Z,98773.66
2022-11-29T19:44:08.545Z,98774.47
2022-11-29T19:47:03.921Z,98778.88
2022-11-29T19:49:31.879Z,98770.16
2022-11-29T19:52:01.772Z,98777.09
2022-11-29T19:54:28.493Z,98779.72
2022-11-29T19:56:55.974Z,98777.13
2022-11-29T19:59:22.881Z,98784.09
2022-11-29T20:01:49.404Z,98787.56
2022-11-29T20:04:17.554Z,98782.34
2022-11-29T20:06:44.616Z,98788.44
2022-11-29T20:09:13.598Z,98784.09
2022-11-29T20:11:40.661Z,98789.31
2022-11-29T20:14:08.233Z,98786.69
2022-11-29T20:16:37.987Z,98794.53
2022-11-29T20:19:12.967Z,98794.53
2022-11-29T20:21:44.952Z,98791.94
2022-11-29T20:24:13.094Z,98792.81
2022-11-29T20:26:43.971Z,98798.03
2022-11-29T20:29:11.699Z,98804.09
2022-11-29T20:31:43.154Z,98810.22
2022-11-29T20:34:16.439Z,98800.63
2022-11-29T20:36:59.207Z,98806.72
2022-11-29T20:40:10.105Z,98789.31
2022-11-29T20:43:11.135Z,98796.28
2022-11-29T20:45:37.958Z,98792.81
2022-11-29T20:48:21.250Z,98799.75
2022-11-29T20:50:56.801Z,98804.13
2022-11-29T20:53:46.194Z,98800.63
2022-11-29T20:56:13.328Z,98797.13
2022-11-29T20:58:40.429Z,98805.88
2022-11-29T21:01:07.638Z,98804.97
2022-11-29T21:03:34.825Z,98805.84
2022-11-29T21:06:03.445Z,98806.72
2022-11-29T21:08:30.001Z,98804.97
2022-11-29T21:11:06.377Z,98807.56
2022-11-29T21:13:34.053Z,98804.94
2022-11-29T21:16:01.487Z,98809.31
2022-11-29T21:18:29.960Z,98807.56
2022-11-29T21:21:24.865Z,98805.84
2022-11-29T21:24:02.707Z,98808.44
2022-11-29T21:26:40.040Z,98809.31
2022-11-29T21:29:20.356Z,98805.84
2022-11-29T21:31:49.768Z,98815.41
2022-11-29T21:34:16.334Z,98818.88
2022-11-29T21:36:44.107Z,98820.63
2022-11-29T21:39:13.419Z,98813.66
2022-11-29T21:41:39.944Z,98820.63
2022-11-29T21:44:07.806Z,98821.50
2022-11-29T21:46:35.275Z,98822.38
2022-11-29T21:49:01.840Z,98830.22
2022-11-29T21:51:28.306Z,98834.56
2022-11-29T21:53:54.864Z,98829.34
2022-11-29T21:56:21.464Z,98834.56
2022-11-29T21:58:47.965Z,98833.69
2022-11-29T22:01:19.996Z,98824.09
2022-11-29T22:03:47.228Z,98828.47
2022-11-29T22:06:18.262Z,98829.34
2022-11-29T22:08:44.768Z,98835.44
2022-11-29T22:11:14.126Z,98831.06
2022-11-29T22:14:01.524Z,98830.22
2022-11-29T22:16:29.389Z,98829.34
2022-11-29T22:18:55.997Z,98831.09
2022-11-29T22:21:22.674Z,98829.34
2022-11-29T22:23:49.342Z,98832.81
2022-11-29T22:26:15.831Z,98838.03
2022-11-29T22:28:42.343Z,98838.03
2022-11-29T22:31:10.957Z,98838.03
2022-11-29T22:33:38.536Z,98839.75
2022-11-29T22:36:07.089Z,98841.50
2022-11-29T22:38:34.177Z,98851.09
2022-11-29T22:41:12.369Z,98847.59
2022-11-29T22:43:40.340Z,98847.59
2022-11-29T22:46:15.342Z,98849.34
2022-11-29T22:48:43.932Z,98846.75
2022-11-29T22:51:27.960Z,98845.88
2022-11-29T22:53:56.200Z,98840.66
2022-11-29T22:56:24.732Z,98839.78
2022-11-29T22:58:52.045Z,98836.31
2022-11-29T23:01:27.689Z,98838.91
2022-11-29T23:03:56.756Z,98836.28
2022-11-29T23:06:25.897Z,98833.69
2022-11-29T23:08:54.988Z,98829.34
2022-11-29T23:11:24.283Z,98836.28
2022-11-29T23:13:51.458Z,98831.06
2022-11-29T23:16:20.892Z,98843.25
2022-11-29T23:18:47.779Z,98841.50
2022-11-29T23:21:20.389Z,98838.03
2022-11-29T23:23:50.284Z,98839.75
2022-11-29T23:26:21.077Z,98834.56
2022-11-29T23:28:48.253Z,98844.97
2022-11-29T23:31:15.192Z,98840.66
2022-11-29T23:33:41.817Z,98843.25
2022-11-29T23:36:09.957Z,98841.53
2022-11-29T23:38:36.893Z,98849.34
2022-11-29T23:41:04.553Z,98838.91
2022-11-29T23:43:33.054Z,98835.41
2022-11-29T23:45:59.697Z,98831.94
2022-11-29T23:48:26.314Z,98827.59
2022-11-29T23:50:52.859Z,98824.13
2022-11-29T23:53:19.419Z,98821.53
2022-11-29T23:55:55.911Z,98829.34
2022-11-29T23:58:22.431Z,98820.63
